sensor_id;sensor_type;location;lat;lon;timestamp;P1;durP1;ratioP1;P2;durP2;ratioP2
13366;SDS011;6752;52.612;13.630;2022-09-09T00:00:21;10.88;;;8.50;;
13366;SDS011;6752;52.612;13.630;2022-09-09T00:05:38;11.57;;;9.75;;
13366;SDS011;6752;52.612;13.630;2022-09-09T00:20:43;17.20;;;13.52;;
13366;SDS011;6752;52.612;13.630;2022-09-09T00:25:44;11.87;;;9.47;;
13366;SDS011;6752;52.612;13.630;2022-09-09T00:30:56;13.57;;;11.48;;
13366;SDS011;6752;52.612;13.630;2022-09-09T00:35:58;17.80;;;13.20;;
13366;SDS011;6752;52.612;13.630;2022-09-09T00:41:03;16.58;;;12.50;;
13366;SDS011;6752;52.612;13.630;2022-09-09T00:46:21;13.65;;;12.07;;
13366;SDS011;6752;52.612;13.630;2022-09-09T01:01:22;102.28;;;18.85;;
13366;SDS011;6752;52.612;13.630;2022-09-09T01:06:35;170.48;;;23.08;;
13366;SDS011;6752;52.612;13.630;2022-09-09T01:16:58;74.28;;;20.23;;
13366;SDS011;6752;52.612;13.630;2022-09-09T01:22:22;58.20;;;20.52;;
13366;SDS011;6752;52.612;13.630;2022-09-09T01:27:25;24.58;;;18.75;;
13366;SDS011;6752;52.612;13.630;2022-09-09T01:32:41;19.65;;;16.95;;
13366;SDS011;6752;52.612;13.630;2022-09-09T01:37:42;14.52;;;12.32;;
13366;SDS011;6752;52.612;13.630;2022-09-09T01:42:44;16.48;;;12.37;;
13366;SDS011;6752;52.612;13.630;2022-09-09T01:47:46;16.27;;;13.73;;
13366;SDS011;6752;52.612;13.630;2022-09-09T01:52:50;16.10;;;12.20;;
13366;SDS011;6752;52.612;13.630;2022-09-09T01:57:58;14.15;;;12.52;;
13366;SDS011;6752;52.612;13.630;2022-09-09T02:03:08;16.85;;;12.80;;
13366;SDS011;6752;52.612;13.630;2022-09-09T02:13:14;14.98;;;12.15;;
13366;SDS011;6752;52.612;13.630;2022-09-09T02:18:16;15.55;;;10.57;;
13366;SDS011;6752;52.612;13.630;2022-09-09T02:23:18;14.10;;;10.80;;
13366;SDS011;6752;52.612;13.630;2022-09-09T02:28:21;14.75;;;10.18;;
13366;SDS011;6752;52.612;13.630;2022-09-09T02:33:24;19.20;;;13.20;;
13366;SDS011;6752;52.612;13.630;2022-09-09T02:38:29;11.65;;;9.95;;
13366;SDS011;6752;52.612;13.630;2022-09-09T02:43:32;10.68;;;9.13;;
13366;SDS011;6752;52.612;13.630;2022-09-09T02:48:36;11.77;;;8.63;;
13366;SDS011;6752;52.612;13.630;2022-09-09T02:53:59;11.57;;;9.20;;
13366;SDS011;6752;52.612;13.630;2022-09-09T02:58:41;15.82;;;10.10;;
13366;SDS011;6752;52.612;13.630;2022-09-09T03:03:43;10.88;;;7.75;;
13366;SDS011;6752;52.612;13.630;2022-09-09T03:08:46;10.88;;;7.12;;
13366;SDS011;6752;52.612;13.630;2022-09-09T03:13:48;10.98;;;7.65;;
13366;SDS011;6752;52.612;13.630;2022-09-09T03:18:50;12.77;;;6.55;;
13366;SDS011;6752;52.612;13.630;2022-09-09T03:23:53;9.73;;;7.18;;
13366;SDS011;6752;52.612;13.630;2022-09-09T03:28:55;13.07;;;9.80;;
13366;SDS011;6752;52.612;13.630;2022-09-09T03:38:59;12.15;;;8.88;;
13366;SDS011;6752;52.612;13.630;2022-09-09T03:54:06;12.45;;;8.77;;
13366;SDS011;6752;52.612;13.630;2022-09-09T03:59:08;11.90;;;9.43;;
13366;SDS011;6752;52.612;13.630;2022-09-09T04:04:10;12.23;;;8.80;;
13366;SDS011;6752;52.612;13.630;2022-09-09T04:09:13;9.68;;;7.80;;
13366;SDS011;6752;52.612;13.630;2022-09-09T04:14:15;9.25;;;6.95;;
13366;SDS011;6752;52.612;13.630;2022-09-09T04:19:18;9.93;;;6.32;;
13366;SDS011;6752;52.612;13.630;2022-09-09T04:24:20;9.27;;;6.25;;
13366;SDS011;6752;52.612;13.630;2022-09-09T04:29:22;10.25;;;6.20;;
13366;SDS011;6752;52.612;13.630;2022-09-09T04:34:25;7.80;;;5.25;;
13366;SDS011;6752;52.612;13.630;2022-09-09T04:39:27;12.02;;;7.75;;
13366;SDS011;6752;52.612;13.630;2022-09-09T04:44:30;10.57;;;8.52;;
13366;SDS011;6752;52.612;13.630;2022-09-09T04:49:32;11.20;;;8.73;;
13366;SDS011;6752;52.612;13.630;2022-09-09T04:54:34;11.65;;;8.35;;
13366;SDS011;6752;52.612;13.630;2022-09-09T04:59:37;12.48;;;8.45;;
13366;SDS011;6752;52.612;13.630;2022-09-09T05:04:39;14.27;;;9.43;;
13366;SDS011;6752;52.612;13.630;2022-09-09T05:09:41;12.25;;;8.75;;
13366;SDS011;6752;52.612;13.630;2022-09-09T05:19:46;12.98;;;9.30;;
13366;SDS011;6752;52.612;13.630;2022-09-09T05:24:49;12.25;;;8.73;;
13366;SDS011;6752;52.612;13.630;2022-09-09T05:29:50;11.15;;;8.88;;
13366;SDS011;6752;52.612;13.630;2022-09-09T05:34:53;11.30;;;8.63;;
13366;SDS011;6752;52.612;13.630;2022-09-09T05:39:55;12.57;;;9.35;;
13366;SDS011;6752;52.612;13.630;2022-09-09T05:44:58;11.68;;;8.93;;
13366;SDS011;6752;52.612;13.630;2022-09-09T05:50:03;11.50;;;8.80;;
13366;SDS011;6752;52.612;13.630;2022-09-09T05:55:02;11.50;;;7.78;;
13366;SDS011;6752;52.612;13.630;2022-09-09T06:00:05;9.75;;;8.10;;
13366;SDS011;6752;52.612;13.630;2022-09-09T06:05:07;11.73;;;8.35;;
13366;SDS011;6752;52.612;13.630;2022-09-09T06:10:10;9.80;;;6.50;;
13366;SDS011;6752;52.612;13.630;2022-09-09T06:15:12;10.80;;;6.82;;
13366;SDS011;6752;52.612;13.630;2022-09-09T06:20:14;12.37;;;7.10;;
13366;SDS011;6752;52.612;13.630;2022-09-09T06:25:17;10.57;;;6.47;;
13366;SDS011;6752;52.612;13.630;2022-09-09T06:30:19;11.98;;;6.22;;
13366;SDS011;6752;52.612;13.630;2022-09-09T06:35:22;9.88;;;5.90;;
13366;SDS011;6752;52.612;13.630;2022-09-09T06:40:24;11.25;;;5.55;;
13366;SDS011;6752;52.612;13.630;2022-09-09T06:45:26;12.37;;;5.82;;
13366;SDS011;6752;52.612;13.630;2022-09-09T06:50:29;8.32;;;4.70;;
13366;SDS011;6752;52.612;13.630;2022-09-09T06:55:31;9.18;;;4.47;;
13366;SDS011;6752;52.612;13.630;2022-09-09T07:00:33;13.80;;;4.37;;
13366;SDS011;6752;52.612;13.630;2022-09-09T07:05:36;7.87;;;4.18;;
13366;SDS011;6752;52.612;13.630;2022-09-09T07:10:38;9.70;;;3.60;;
13366;SDS011;6752;52.612;13.630;2022-09-09T07:15:41;7.00;;;3.40;;
13366;SDS011;6752;52.612;13.630;2022-09-09T07:20:43;10.70;;;3.55;;
13366;SDS011;6752;52.612;13.630;2022-09-09T07:25:45;8.52;;;3.47;;
13366;SDS011;6752;52.612;13.630;2022-09-09T07:30:57;7.37;;;2.80;;
13366;SDS011;6752;52.612;13.630;2022-09-09T07:36:06;7.47;;;2.67;;
13366;SDS011;6752;52.612;13.630;2022-09-09T07:41:08;9.55;;;2.72;;
13366;SDS011;6752;52.612;13.630;2022-09-09T07:46:13;6.35;;;2.20;;
13366;SDS011;6752;52.612;13.630;2022-09-09T07:51:15;9.82;;;2.70;;
13366;SDS011;6752;52.612;13.630;2022-09-09T07:56:20;7.37;;;2.40;;
13366;SDS011;6752;52.612;13.630;2022-09-09T08:01:27;4.95;;;2.12;;
13366;SDS011;6752;52.612;13.630;2022-09-09T08:06:32;7.37;;;2.22;;
13366;SDS011;6752;52.612;13.630;2022-09-09T08:11:30;7.82;;;1.92;;
13366;SDS011;6752;52.612;13.630;2022-09-09T08:16:33;6.20;;;1.70;;
13366;SDS011;6752;52.612;13.630;2022-09-09T08:21:35;9.55;;;1.83;;
13366;SDS011;6752;52.612;13.630;2022-09-09T08:26:38;7.37;;;2.10;;
13366;SDS011;6752;52.612;13.630;2022-09-09T08:31:40;5.97;;;1.52;;
13366;SDS011;6752;52.612;13.630;2022-09-09T08:36:47;9.40;;;1.60;;
13366;SDS011;6752;52.612;13.630;2022-09-09T08:41:58;10.13;;;1.60;;
13366;SDS011;6752;52.612;13.630;2022-09-09T08:47:04;7.05;;;1.40;;
13366;SDS011;6752;52.612;13.630;2022-09-09T08:52:08;8.20;;;1.67;;
13366;SDS011;6752;52.612;13.630;2022-09-09T08:57:11;7.32;;;1.50;;
13366;SDS011;6752;52.612;13.630;2022-09-09T09:02:25;6.72;;;1.98;;
13366;SDS011;6752;52.612;13.630;2022-09-09T09:07:37;9.38;;;1.70;;
13366;SDS011;6752;52.612;13.630;2022-09-09T09:12:45;6.53;;;1.85;;
13366;SDS011;6752;52.612;13.630;2022-09-09T09:17:47;7.68;;;2.05;;
13366;SDS011;6752;52.612;13.630;2022-09-09T09:22:52;5.85;;;1.65;;
13366;SDS011;6752;52.612;13.630;2022-09-09T09:28:07;9.00;;;2.95;;
13366;SDS011;6752;52.612;13.630;2022-09-09T09:33:21;8.50;;;2.15;;
13366;SDS011;6752;52.612;13.630;2022-09-09T09:38:26;10.30;;;3.62;;
13366;SDS011;6752;52.612;13.630;2022-09-09T09:43:39;4.68;;;1.40;;
13366;SDS011;6752;52.612;13.630;2022-09-09T09:48:30;7.28;;;1.60;;
13366;SDS011;6752;52.612;13.630;2022-09-09T09:53:33;7.20;;;1.40;;
13366;SDS011;6752;52.612;13.630;2022-09-09T10:03:50;6.10;;;1.30;;
13366;SDS011;6752;52.612;13.630;2022-09-09T10:08:52;3.87;;;1.10;;
13366;SDS011;6752;52.612;13.630;2022-09-09T10:14:04;9.20;;;1.67;;
13366;SDS011;6752;52.612;13.630;2022-09-09T10:19:06;6.95;;;2.00;;
13366;SDS011;6752;52.612;13.630;2022-09-09T10:24:22;8.77;;;1.62;;
13366;SDS011;6752;52.612;13.630;2022-09-09T10:40:05;6.82;;;1.20;;
13366;SDS011;6752;52.612;13.630;2022-09-09T10:45:28;5.68;;;1.20;;
13366;SDS011;6752;52.612;13.630;2022-09-09T10:55:48;4.43;;;1.00;;
13366;SDS011;6752;52.612;13.630;2022-09-09T11:00:49;6.40;;;1.00;;
13366;SDS011;6752;52.612;13.630;2022-09-09T11:06:04;11.98;;;2.00;;
13366;SDS011;6752;52.612;13.630;2022-09-09T11:21:47;7.90;;;1.12;;
13366;SDS011;6752;52.612;13.630;2022-09-09T11:26:51;6.68;;;1.25;;
13366;SDS011;6752;52.612;13.630;2022-09-09T11:32:03;8.02;;;1.02;;
13366;SDS011;6752;52.612;13.630;2022-09-09T11:37:35;5.67;;;1.00;;
13366;SDS011;6752;52.612;13.630;2022-09-09T11:43:38;6.00;;;1.10;;
13366;SDS011;6752;52.612;13.630;2022-09-09T11:48:22;5.12;;;1.02;;
13366;SDS011;6752;52.612;13.630;2022-09-09T11:53:31;6.75;;;0.93;;
13366;SDS011;6752;52.612;13.630;2022-09-09T11:58:40;3.97;;;0.90;;
13366;SDS011;6752;52.612;13.630;2022-09-09T12:03:43;7.33;;;1.40;;
13366;SDS011;6752;52.612;13.630;2022-09-09T12:08:50;5.70;;;1.12;;
13366;SDS011;6752;52.612;13.630;2022-09-09T12:13:52;7.12;;;1.17;;
13366;SDS011;6752;52.612;13.630;2022-09-09T12:24:07;8.55;;;2.92;;
13366;SDS011;6752;52.612;13.630;2022-09-09T12:29:12;4.53;;;0.70;;
13366;SDS011;6752;52.612;13.630;2022-09-09T12:34:30;4.20;;;0.80;;
13366;SDS011;6752;52.612;13.630;2022-09-09T12:39:41;4.12;;;0.88;;
13366;SDS011;6752;52.612;13.630;2022-09-09T12:44:50;5.45;;;0.98;;
13366;SDS011;6752;52.612;13.630;2022-09-09T12:49:43;5.18;;;0.93;;
13366;SDS011;6752;52.612;13.630;2022-09-09T12:54:46;6.70;;;1.10;;
13366;SDS011;6752;52.612;13.630;2022-09-09T12:59:48;9.98;;;0.90;;
13366;SDS011;6752;52.612;13.630;2022-09-09T13:04:50;4.03;;;0.73;;
13366;SDS011;6752;52.612;13.630;2022-09-09T13:09:53;4.35;;;0.82;;
13366;SDS011;6752;52.612;13.630;2022-09-09T13:14:55;4.80;;;0.73;;
13366;SDS011;6752;52.612;13.630;2022-09-09T13:19:57;5.03;;;1.12;;
13366;SDS011;6752;52.612;13.630;2022-09-09T13:25:01;3.62;;;0.73;;
13366;SDS011;6752;52.612;13.630;2022-09-09T13:30:18;4.30;;;0.60;;
13366;SDS011;6752;52.612;13.630;2022-09-09T13:40:14;4.10;;;0.62;;
13366;SDS011;6752;52.612;13.630;2022-09-09T13:45:16;6.65;;;0.50;;
13366;SDS011;6752;52.612;13.630;2022-09-09T13:50:21;4.97;;;0.60;;
13366;SDS011;6752;52.612;13.630;2022-09-09T13:55:23;7.50;;;0.70;;
13366;SDS011;6752;52.612;13.630;2022-09-09T14:00:25;4.55;;;0.75;;
13366;SDS011;6752;52.612;13.630;2022-09-09T14:05:27;3.70;;;0.70;;
13366;SDS011;6752;52.612;13.630;2022-09-09T14:10:29;6.62;;;1.05;;
13366;SDS011;6752;52.612;13.630;2022-09-09T14:15:32;3.87;;;0.85;;
13366;SDS011;6752;52.612;13.630;2022-09-09T14:20:34;5.87;;;0.82;;
13366;SDS011;6752;52.612;13.630;2022-09-09T14:30:39;3.03;;;0.60;;
13366;SDS011;6752;52.612;13.630;2022-09-09T14:35:41;5.05;;;0.50;;
13366;SDS011;6752;52.612;13.630;2022-09-09T14:40:44;6.75;;;1.70;;
13366;SDS011;6752;52.612;13.630;2022-09-09T14:45:46;6.22;;;1.00;;
13366;SDS011;6752;52.612;13.630;2022-09-09T14:50:48;3.37;;;0.70;;
13366;SDS011;6752;52.612;13.630;2022-09-09T14:55:50;4.32;;;0.60;;
13366;SDS011;6752;52.612;13.630;2022-09-09T15:00:53;7.10;;;1.12;;
13366;SDS011;6752;52.612;13.630;2022-09-09T15:05:55;6.70;;;1.25;;
13366;SDS011;6752;52.612;13.630;2022-09-09T15:11:05;5.03;;;0.90;;
13366;SDS011;6752;52.612;13.630;2022-09-09T15:21:05;7.97;;;1.10;;
13366;SDS011;6752;52.612;13.630;2022-09-09T15:26:08;4.07;;;0.80;;
13366;SDS011;6752;52.612;13.630;2022-09-09T15:31:15;8.02;;;0.88;;
13366;SDS011;6752;52.612;13.630;2022-09-09T15:36:25;5.55;;;1.70;;
13366;SDS011;6752;52.612;13.630;2022-09-09T15:46:38;4.85;;;1.48;;
13366;SDS011;6752;52.612;13.630;2022-09-09T15:51:41;7.72;;;0.85;;
13366;SDS011;6752;52.612;13.630;2022-09-09T15:56:42;5.30;;;0.80;;
13366;SDS011;6752;52.612;13.630;2022-09-09T16:01:44;6.25;;;0.80;;
13366;SDS011;6752;52.612;13.630;2022-09-09T16:06:47;5.75;;;1.02;;
13366;SDS011;6752;52.612;13.630;2022-09-09T16:11:49;5.25;;;0.85;;
13366;SDS011;6752;52.612;13.630;2022-09-09T16:21:53;5.78;;;1.00;;
13366;SDS011;6752;52.612;13.630;2022-09-09T16:26:56;3.20;;;0.60;;
13366;SDS011;6752;52.612;13.630;2022-09-09T16:31:58;3.78;;;0.60;;
13366;SDS011;6752;52.612;13.630;2022-09-09T16:37:01;5.43;;;0.73;;
13366;SDS011;6752;52.612;13.630;2022-09-09T16:42:03;3.83;;;0.73;;
13366;SDS011;6752;52.612;13.630;2022-09-09T16:47:06;4.32;;;1.00;;
13366;SDS011;6752;52.612;13.630;2022-09-09T16:52:08;4.87;;;0.90;;
13366;SDS011;6752;52.612;13.630;2022-09-09T16:57:11;5.50;;;1.00;;
13366;SDS011;6752;52.612;13.630;2022-09-09T17:02:13;9.68;;;1.83;;
13366;SDS011;6752;52.612;13.630;2022-09-09T17:07:16;5.03;;;0.88;;
13366;SDS011;6752;52.612;13.630;2022-09-09T17:12:18;12.07;;;2.10;;
13366;SDS011;6752;52.612;13.630;2022-09-09T17:17:20;4.53;;;1.00;;
13366;SDS011;6752;52.612;13.630;2022-09-09T17:22:23;8.88;;;1.73;;
13366;SDS011;6752;52.612;13.630;2022-09-09T17:27:25;5.15;;;1.40;;
13366;SDS011;6752;52.612;13.630;2022-09-09T17:32:27;7.85;;;2.75;;
13366;SDS011;6752;52.612;13.630;2022-09-09T17:37:30;6.07;;;1.33;;
13366;SDS011;6752;52.612;13.630;2022-09-09T17:42:32;4.80;;;1.17;;
13366;SDS011;6752;52.612;13.630;2022-09-09T17:47:34;2.28;;;0.62;;
13366;SDS011;6752;52.612;13.630;2022-09-09T17:52:37;5.40;;;1.02;;
13366;SDS011;6752;52.612;13.630;2022-09-09T17:57:39;2.12;;;0.62;;
13366;SDS011;6752;52.612;13.630;2022-09-09T18:02:42;4.35;;;1.00;;
13366;SDS011;6752;52.612;13.630;2022-09-09T18:07:44;5.22;;;0.80;;
13366;SDS011;6752;52.612;13.630;2022-09-09T18:17:48;8.00;;;1.30;;
13366;SDS011;6752;52.612;13.630;2022-09-09T18:22:51;5.30;;;1.20;;
13366;SDS011;6752;52.612;13.630;2022-09-09T18:27:54;7.62;;;1.73;;
13366;SDS011;6752;52.612;13.630;2022-09-09T18:32:56;6.72;;;1.12;;
13366;SDS011;6752;52.612;13.630;2022-09-09T18:37:58;6.37;;;1.15;;
13366;SDS011;6752;52.612;13.630;2022-09-09T18:43:01;4.82;;;0.90;;
13366;SDS011;6752;52.612;13.630;2022-09-09T18:48:03;5.78;;;1.77;;
13366;SDS011;6752;52.612;13.630;2022-09-09T18:53:05;5.93;;;1.42;;
13366;SDS011;6752;52.612;13.630;2022-09-09T18:58:12;5.25;;;1.25;;
13366;SDS011;6752;52.612;13.630;2022-09-09T19:03:10;5.50;;;1.10;;
13366;SDS011;6752;52.612;13.630;2022-09-09T19:08:12;4.70;;;0.98;;
13366;SDS011;6752;52.612;13.630;2022-09-09T19:13:18;4.35;;;1.00;;
13366;SDS011;6752;52.612;13.630;2022-09-09T19:18:17;2.35;;;0.70;;
13366;SDS011;6752;52.612;13.630;2022-09-09T19:23:19;7.07;;;1.23;;
13366;SDS011;6752;52.612;13.630;2022-09-09T19:38:26;5.25;;;1.02;;
13366;SDS011;6752;52.612;13.630;2022-09-09T19:43:28;3.78;;;0.90;;
13366;SDS011;6752;52.612;13.630;2022-09-09T19:48:34;4.90;;;1.00;;
13366;SDS011;6752;52.612;13.630;2022-09-09T19:53:37;5.72;;;1.00;;
13366;SDS011;6752;52.612;13.630;2022-09-09T19:58:39;4.15;;;1.05;;
13366;SDS011;6752;52.612;13.630;2022-09-09T20:03:41;6.28;;;1.33;;
13366;SDS011;6752;52.612;13.630;2022-09-09T20:08:44;5.53;;;1.35;;
13366;SDS011;6752;52.612;13.630;2022-09-09T20:13:47;4.93;;;1.00;;
13366;SDS011;6752;52.612;13.630;2022-09-09T20:18:51;5.28;;;1.30;;
13366;SDS011;6752;52.612;13.630;2022-09-09T20:23:52;5.55;;;1.58;;
13366;SDS011;6752;52.612;13.630;2022-09-09T20:28:55;3.83;;;1.00;;
13366;SDS011;6752;52.612;13.630;2022-09-09T20:33:57;6.32;;;1.10;;
13366;SDS011;6752;52.612;13.630;2022-09-09T20:39:00;4.45;;;1.00;;
13366;SDS011;6752;52.612;13.630;2022-09-09T20:44:08;6.07;;;1.25;;
13366;SDS011;6752;52.612;13.630;2022-09-09T20:59:17;6.15;;;1.25;;
13366;SDS011;6752;52.612;13.630;2022-09-09T21:04:19;7.72;;;1.00;;
13366;SDS011;6752;52.612;13.630;2022-09-09T21:09:21;5.03;;;1.60;;
13366;SDS011;6752;52.612;13.630;2022-09-09T21:14:23;6.53;;;1.40;;
13366;SDS011;6752;52.612;13.630;2022-09-09T21:19:26;3.62;;;1.20;;
13366;SDS011;6752;52.612;13.630;2022-09-09T21:24:28;4.90;;;1.20;;
13366;SDS011;6752;52.612;13.630;2022-09-09T21:29:31;4.43;;;1.23;;
13366;SDS011;6752;52.612;13.630;2022-09-09T21:34:33;5.70;;;1.42;;
13366;SDS011;6752;52.612;13.630;2022-09-09T21:39:35;3.85;;;1.12;;
13366;SDS011;6752;52.612;13.630;2022-09-09T21:44:38;4.35;;;1.17;;
13366;SDS011;6752;52.612;13.630;2022-09-09T21:49:40;6.35;;;1.60;;
13366;SDS011;6752;52.612;13.630;2022-09-09T21:54:42;6.68;;;1.60;;
13366;SDS011;6752;52.612;13.630;2022-09-09T21:59:45;6.65;;;1.87;;
13366;SDS011;6752;52.612;13.630;2022-09-09T22:04:47;5.43;;;1.20;;
13366;SDS011;6752;52.612;13.630;2022-09-09T22:09:49;7.45;;;1.65;;
13366;SDS011;6752;52.612;13.630;2022-09-09T22:14:52;6.32;;;2.42;;
13366;SDS011;6752;52.612;13.630;2022-09-09T22:19:54;6.25;;;1.40;;
13366;SDS011;6752;52.612;13.630;2022-09-09T22:24:57;8.10;;;1.60;;
13366;SDS011;6752;52.612;13.630;2022-09-09T22:29:59;4.07;;;1.12;;
13366;SDS011;6752;52.612;13.630;2022-09-09T22:35:01;5.53;;;1.30;;
13366;SDS011;6752;52.612;13.630;2022-09-09T22:40:04;4.45;;;1.58;;
13366;SDS011;6752;52.612;13.630;2022-09-09T22:45:07;4.25;;;1.17;;
13366;SDS011;6752;52.612;13.630;2022-09-09T22:50:09;3.15;;;1.10;;
13366;SDS011;6752;52.612;13.630;2022-09-09T22:55:11;4.45;;;1.30;;
13366;SDS011;6752;52.612;13.630;2022-09-09T23:00:14;4.70;;;1.10;;
13366;SDS011;6752;52.612;13.630;2022-09-09T23:05:16;4.57;;;1.30;;
13366;SDS011;6752;52.612;13.630;2022-09-09T23:10:18;5.87;;;1.62;;
13366;SDS011;6752;52.612;13.630;2022-09-09T23:15:21;4.65;;;1.50;;
13366;SDS011;6752;52.612;13.630;2022-09-09T23:20:26;5.60;;;1.65;;
13366;SDS011;6752;52.612;13.630;2022-09-09T23:25:28;5.28;;;1.55;;
13366;SDS011;6752;52.612;13.630;2022-09-09T23:30:33;3.37;;;1.40;;
13366;SDS011;6752;52.612;13.630;2022-09-09T23:35:36;5.97;;;1.67;;
13366;SDS011;6752;52.612;13.630;2022-09-09T23:40:38;4.93;;;1.27;;
13366;SDS011;6752;52.612;13.630;2022-09-09T23:45:40;6.25;;;2.10;;
13366;SDS011;6752;52.612;13.630;2022-09-09T23:50:43;5.62;;;1.48;;
13366;SDS011;6752;52.612;13.630;2022-09-09T23:55:45;7.37;;;1.90;;
